METAR AND TAF INFORMATION
METAR FOR EEKE
ADDS - METARS form results

(0446 UTC 26 February 2020)
Data provider http://aviationweather.gov/metar/data/
 
METAR text: EEKE 260350Z AUTO 17006KT 7000NDV -RA FEW006 BKN008 OVC024 02/02 Q0983
Conditions at: EEKE (KURESSAARE , EE) observed 0350 UTC 26 February 2020
Temperature: 2.0°C (36°F)
Dewpoint: 2.0°C (36°F) [RH = 100%]
Pressure (altimeter): 29.03 inches Hg (983.0 mb)
Winds: from the S (170 degrees) at 7 MPH (6 knots; 3.1 m/s)
Visibility: missing
Ceiling: 800 feet AGL
Clouds: few clouds at 600 feet AGL
broken clouds at 800 feet AGL
overcast cloud deck at 2400 feet AGL
Weather: -RA  (light rain)

 AIRPORT MAP

 RUNWAY INFORMATION
Runway 05 Runway length 2621 ft Runway width 98 ft
Runway elevation 11 ft Runway displaced threshold 0 ft Runway heading 59
Runway 23 Runway length 2621 ft Runway width 98 ft
Runway elevation 5 ft Runway displaced threshold 0 ft Runway heading 239
Runway 17 Runway length 4980 ft Runway width 98 ft
Runway elevation 14 ft Runway displaced threshold 0 ft Runway heading 180
Runway 35 Runway length 4980 ft Runway width 98 ft
Runway elevation 8 ft Runway displaced threshold 0 ft Runway heading 360

 AIRPORT FREQUENCIES
Type TWR Name TWR Frequency 118.05 MHZ

 AIRPORT NEAR NAVIGATION AIDS
Type VOR-DME Name Kuressaare Frequency 112400 KHZ
Type NDB Name Kuressaare Frequency 350 KHZ



Powered by Virtual Airlines Manager [v2.6.2]